Time;durP1;ratioP1;P1;durP2;ratioP2;P2;SDS_P1;SDS_P2;PMS_P1;PMS_P2;Temp;Humidity;BMP_temperature;BMP_pressure;BME280_temperature;BME280_humidity;BME280_pressure;Samples;Min_cycle;Max_cycle;Signal;HPM_P1;HPM_P2
2022/01/21 00:01:05;;;;;;;6.23;1.97;;;0.70;95.40;;;;;;5027314;28;20229;-78
2022/01/21 00:03:32;;;;;;;4.20;1.20;;;0.70;95.40;;;;;;5022857;28;20255;-76
2022/01/21 00:05:59;;;;;;;5.40;1.77;;;0.70;95.50;;;;;;5047085;28;20230;-78
2022/01/21 00:08:26;;;;;;;5.33;1.27;;;0.70;95.50;;;;;;5028026;28;20237;-74
2022/01/21 00:10:52;;;;;;;4.10;1.40;;;0.70;95.50;;;;;;5041158;28;20232;-77
2022/01/21 00:13:24;;;;;;;3.67;1.23;;;0.70;95.60;;;;;;5042519;28;20220;-78
2022/01/21 00:15:52;;;;;;;7.17;1.30;;;0.70;95.60;;;;;;5029158;28;20790;-77
2022/01/21 00:18:20;;;;;;;3.47;0.97;;;0.70;95.60;;;;;;5041119;28;20912;-77
2022/01/21 00:31:45;;;;;;;6.00;1.60;;;0.70;95.70;;;;;;5036407;28;20322;-77
2022/01/21 00:34:12;;;;;;;3.87;1.23;;;0.70;95.80;;;;;;5030420;28;20251;-75
2022/01/21 00:36:38;;;;;;;5.83;1.33;;;0.70;95.80;;;;;;5030115;28;20236;-78
2022/01/21 00:39:05;;;;;;;5.33;1.50;;;0.70;95.80;;;;;;5033248;28;20236;-78
2022/01/21 00:41:37;;;;;;;8.57;1.50;;;0.80;95.90;;;;;;5029898;28;20229;-76
2022/01/21 00:44:04;;;;;;;6.27;1.40;;;0.80;95.90;;;;;;5025535;28;20274;-78
2022/01/21 00:46:31;;;;;;;5.50;1.60;;;0.80;95.90;;;;;;5024991;28;20234;-78
2022/01/21 00:48:59;;;;;;;2.70;1.20;;;0.80;96.00;;;;;;5034782;28;20293;-78
2022/01/21 00:51:25;;;;;;;4.43;1.50;;;0.80;96.30;;;;;;5030557;28;20733;-77
2022/01/21 00:53:52;;;;;;;9.40;1.77;;;0.80;96.20;;;;;;5030705;28;20257;-77
2022/01/21 00:56:18;;;;;;;4.20;1.30;;;0.80;96.20;;;;;;5023841;28;20279;-77
2022/01/21 00:58:45;;;;;;;8.30;1.73;;;0.70;96.10;;;;;;5029010;28;20263;-78
2022/01/21 01:01:13;;;;;;;3.03;0.97;;;0.70;96.30;;;;;;5025099;28;20228;-77
2022/01/21 01:03:40;;;;;;;5.93;1.60;;;0.70;96.30;;;;;;5042368;28;20230;-76
2022/01/21 01:06:08;;;;;;;4.57;1.30;;;0.70;96.20;;;;;;5027529;28;20231;-76
2022/01/21 01:08:34;;;;;;;3.63;1.20;;;0.70;96.30;;;;;;5024322;28;20238;-77
2022/01/21 01:11:18;;;;;;;7.10;1.30;;;0.70;96.40;;;;;;5026701;28;20228;-77
2022/01/21 01:21:59;;;;;;;4.47;1.33;;;0.70;96.60;;;;;;5036230;28;20228;-78
2022/01/21 01:29:56;;;;;;;7.40;1.77;;;0.60;96.90;;;;;;5044511;28;20353;-75
2022/01/21 01:32:24;;;;;;;9.87;1.57;;;0.60;97.00;;;;;;5043185;28;20324;-76
2022/01/21 01:34:52;;;;;;;5.93;1.27;;;0.60;97.10;;;;;;5029263;28;20234;-74
2022/01/21 01:37:33;;;;;;;3.83;1.20;;;0.60;97.00;;;;;;5047807;28;20312;-77
2022/01/21 01:40:14;;;;;;;6.30;1.40;;;0.60;97.10;;;;;;5033183;28;20771;-75
2022/01/21 01:51:04;;;;;;;2.90;1.40;;;0.60;97.30;;;;;;5037092;28;20224;-75
2022/01/21 01:53:37;;;;;;;8.63;1.93;;;0.70;97.40;;;;;;5041172;28;20238;-76
2022/01/21 01:56:07;;;;;;;6.30;1.57;;;0.60;97.50;;;;;;5025369;28;20220;-78
2022/01/21 01:58:38;;;;;;;3.67;1.10;;;0.60;97.60;;;;;;5031232;28;20737;-77
2022/01/21 02:01:06;;;;;;;6.87;1.63;;;0.60;97.60;;;;;;5024415;28;20226;-76
2022/01/21 02:03:33;;;;;;;4.63;1.60;;;0.60;97.60;;;;;;5043534;28;20225;-77
2022/01/21 02:06:00;;;;;;;8.83;1.77;;;0.60;97.60;;;;;;5031779;28;20226;-75
2022/01/21 02:08:30;;;;;;;5.73;1.70;;;0.60;97.80;;;;;;5032360;28;20236;-77
2022/01/21 02:10:58;;;;;;;6.60;1.60;;;0.60;98.00;;;;;;5026202;28;20754;-77
2022/01/21 02:13:30;;;;;;;9.87;1.93;;;0.60;98.00;;;;;;5030587;28;20231;-75
2022/01/21 02:15:59;;;;;;;5.40;1.90;;;0.60;97.90;;;;;;5031785;28;20310;-78
2022/01/21 02:21:31;;;;;;;3.37;1.43;;;0.60;98.00;;;;;;5045112;28;20255;-78
2022/01/21 02:24:01;;;;;;;8.97;1.63;;;0.60;98.10;;;;;;5028860;28;20228;-76
2022/01/21 02:26:28;;;;;;;7.70;1.83;;;0.60;98.10;;;;;;5028792;28;20224;-77
2022/01/21 02:28:56;;;;;;;5.60;1.30;;;0.60;98.20;;;;;;5029141;28;20227;-77
2022/01/21 02:31:23;;;;;;;4.77;1.50;;;0.60;98.20;;;;;;5030098;28;20736;-78
2022/01/21 02:33:50;;;;;;;7.37;1.47;;;0.60;98.30;;;;;;5028208;28;20697;-78
2022/01/21 02:36:18;;;;;;;10.10;1.80;;;0.60;98.40;;;;;;5032030;28;20226;-77
2022/01/21 02:38:45;;;;;;;10.83;2.33;;;0.60;98.70;;;;;;5025555;28;20234;-76
2022/01/21 02:41:11;;;;;;;8.17;1.77;;;0.60;98.80;;;;;;5031862;28;20256;-76
2022/01/21 02:43:39;;;;;;;5.90;1.73;;;0.60;98.80;;;;;;5022142;28;20268;-77
2022/01/21 02:46:08;;;;;;;9.33;1.60;;;0.70;99.20;;;;;;5025611;28;20216;-76
2022/01/21 02:48:37;;;;;;;12.13;1.93;;;0.70;99.30;;;;;;5031001;28;20259;-77
2022/01/21 02:51:07;;;;;;;14.03;2.20;;;0.80;99.50;;;;;;5025660;28;20295;-77
2022/01/21 02:54:03;;;;;;;10.03;2.17;;;0.80;99.70;;;;;;5042326;28;20237;-75
2022/01/21 02:56:27;;;;;;;12.87;1.93;;;0.90;99.80;;;;;;5024522;28;20407;-76
2022/01/21 02:58:54;;;;;;;8.97;2.03;;;1.00;99.70;;;;;;5026565;28;20582;-77
2022/01/21 03:01:21;;;;;;;7.93;2.00;;;1.00;99.70;;;;;;5024257;28;20734;-76
2022/01/21 03:03:48;;;;;;;11.50;2.23;;;1.00;99.80;;;;;;5044061;28;20225;-77
2022/01/21 03:06:17;;;;;;;12.57;1.93;;;1.10;99.90;;;;;;5026864;28;20705;-77
2022/01/21 03:08:47;;;;;;;4.43;1.80;;;1.10;99.80;;;;;;5029260;28;20327;-74
2022/01/21 03:11:14;;;;;;;12.13;2.37;;;1.20;99.80;;;;;;5038998;28;20225;-77
2022/01/21 03:13:42;;;;;;;9.23;1.77;;;1.20;99.80;;;;;;5026939;28;20895;-74
2022/01/21 03:16:10;;;;;;;10.53;2.57;;;1.20;99.80;;;;;;5024993;28;20218;-75
2022/01/21 03:18:36;;;;;;;14.70;2.27;;;1.20;99.90;;;;;;5025650;28;20310;-77
2022/01/21 03:21:04;;;;;;;14.57;2.20;;;1.20;99.90;;;;;;5030911;28;20314;-77
2022/01/21 03:23:31;;;;;;;10.43;1.97;;;1.30;99.90;;;;;;5045505;28;20326;-75
2022/01/21 03:25:59;;;;;;;9.40;2.17;;;1.30;99.90;;;;;;5026220;28;20245;-76
2022/01/21 03:28:44;;;;;;;10.63;2.10;;;1.30;99.90;;;;;;5026865;28;20244;-77
2022/01/21 03:31:12;;;;;;;11.27;2.07;;;1.40;99.90;;;;;;5022830;28;20229;-77
2022/01/21 03:33:39;;;;;;;7.60;2.03;;;1.40;99.90;;;;;;5023792;28;20238;-78
2022/01/21 03:36:07;;;;;;;6.60;1.87;;;1.50;99.90;;;;;;5031716;28;20220;-77
2022/01/21 03:38:34;;;;;;;9.93;2.23;;;1.50;99.90;;;;;;5022724;28;20242;-77
2022/01/21 03:41:03;;;;;;;12.23;2.83;;;1.60;99.90;;;;;;5026719;28;20317;-77
2022/01/21 03:43:30;;;;;;;11.20;2.53;;;1.60;99.90;;;;;;5042783;28;20225;-75
2022/01/21 03:45:56;;;;;;;15.73;2.63;;;1.60;99.90;;;;;;5027113;28;20637;-77
2022/01/21 03:48:25;;;;;;;8.83;2.00;;;1.70;99.90;;;;;;5024140;28;20233;-77
2022/01/21 03:50:52;;;;;;;8.70;1.93;;;1.70;99.90;;;;;;5028587;28;20665;-77
2022/01/21 03:53:19;;;;;;;11.27;2.23;;;1.70;99.90;;;;;;5023420;28;20252;-77
2022/01/21 03:55:47;;;;;;;13.20;2.63;;;1.80;99.90;;;;;;5027396;28;20315;-75
2022/01/21 03:58:15;;;;;;;9.27;2.17;;;1.80;99.90;;;;;;5042486;28;20313;-77
2022/01/21 04:00:47;;;;;;;11.50;1.90;;;1.80;99.90;;;;;;5018170;28;20228;-76
2022/01/21 04:03:15;;;;;;;11.93;1.90;;;1.80;99.90;;;;;;5026294;28;20222;-78
2022/01/21 04:05:42;;;;;;;12.33;2.53;;;1.80;99.90;;;;;;5030290;28;20699;-76
2022/01/21 04:08:11;;;;;;;13.13;3.10;;;1.90;99.90;;;;;;5028359;28;20302;-78
2022/01/21 04:10:42;;;;;;;10.13;2.00;;;1.90;99.90;;;;;;5025261;28;20236;-78
2022/01/21 04:13:14;;;;;;;9.17;2.00;;;1.90;99.90;;;;;;5023299;28;20278;-77
2022/01/21 04:15:44;;;;;;;7.20;2.03;;;1.90;99.90;;;;;;5045355;28;20258;-78
2022/01/21 04:18:13;;;;;;;7.63;2.40;;;2.00;99.90;;;;;;5028370;28;20220;-77
2022/01/21 04:20:41;;;;;;;8.53;1.70;;;2.00;99.90;;;;;;5043320;28;20260;-78
2022/01/21 04:23:08;;;;;;;9.17;3.30;;;2.10;99.90;;;;;;5025173;28;20242;-77
2022/01/21 04:25:35;;;;;;;15.43;2.40;;;2.10;99.90;;;;;;5037937;28;20227;-77
2022/01/21 04:28:02;;;;;;;11.37;1.80;;;2.10;99.90;;;;;;5026745;28;20231;-78
2022/01/21 04:30:28;;;;;;;16.27;2.57;;;2.10;99.90;;;;;;5023285;28;20226;-77
2022/01/21 04:32:57;;;;;;;13.23;1.90;;;2.20;99.90;;;;;;5044471;28;21004;-75
2022/01/21 04:35:27;;;;;;;12.57;2.10;;;2.10;99.90;;;;;;5026111;28;20258;-77
2022/01/21 04:37:56;;;;;;;9.90;1.80;;;2.20;99.90;;;;;;5031673;28;20262;-77
2022/01/21 04:40:28;;;;;;;14.83;2.47;;;2.20;99.90;;;;;;5034364;28;20247;-76
2022/01/21 04:48:30;;;;;;;8.00;1.87;;;2.20;99.90;;;;;;5019054;28;20232;-76
2022/01/21 04:51:00;;;;;;;9.27;2.00;;;2.20;99.90;;;;;;5030769;28;20330;-78
2022/01/21 04:53:32;;;;;;;8.77;1.93;;;2.10;99.90;;;;;;5024379;28;20235;-77
2022/01/21 04:56:11;;;;;;;9.07;2.27;;;2.10;99.90;;;;;;5027544;28;20298;-76
2022/01/21 04:58:38;;;;;;;15.73;2.63;;;2.10;99.90;;;;;;5027314;28;20832;-78
2022/01/21 05:01:06;;;;;;;8.23;2.13;;;2.10;99.90;;;;;;5023685;28;20305;-79
2022/01/21 05:03:36;;;;;;;10.23;2.20;;;2.10;99.90;;;;;;5024523;28;20227;-76
2022/01/21 05:06:03;;;;;;;11.33;2.13;;;2.10;99.90;;;;;;5032733;28;20230;-76
2022/01/21 05:08:38;;;;;;;5.93;1.80;;;2.10;99.90;;;;;;5023150;28;20226;-78
2022/01/21 05:11:05;;;;;;;8.20;2.17;;;2.10;99.90;;;;;;5023410;28;20222;-81
2022/01/21 05:13:38;;;;;;;9.93;2.10;;;2.20;99.90;;;;;;5030182;28;20222;-80
2022/01/21 05:16:11;;;;;;;15.53;3.10;;;2.10;99.90;;;;;;5033274;28;20228;-81
2022/01/21 05:18:39;;;;;;;10.47;2.10;;;2.20;99.90;;;;;;5041735;28;20236;-81
2022/01/21 05:21:38;;;;;;;14.87;2.20;;;2.20;99.90;;;;;;5012562;28;20241;-82
2022/01/21 05:24:10;;;;;;;14.53;2.17;;;2.30;99.90;;;;;;5026053;28;20223;-81
2022/01/21 05:26:40;;;;;;;13.13;2.33;;;2.20;99.90;;;;;;5029699;28;20245;-81
2022/01/21 05:29:10;;;;;;;13.17;2.47;;;2.20;99.90;;;;;;5021087;28;20224;-81
2022/01/21 05:31:57;;;;;;;13.03;3.37;;;2.20;99.90;;;;;;5044304;28;20220;-82
2022/01/21 05:34:38;;;;;;;11.30;2.90;;;2.30;99.90;;;;;;5021749;28;20323;-80
2022/01/21 05:37:14;;;;;;;13.40;3.30;;;2.30;99.90;;;;;;5047394;28;20262;-81
2022/01/21 05:39:57;;;;;;;21.80;3.70;;;2.30;99.90;;;;;;5028380;28;20227;-80
2022/01/21 05:42:37;;;;;;;14.30;2.43;;;2.40;99.90;;;;;;5028770;28;20249;-80
2022/01/21 05:48:34;;;;;;;33.57;4.27;;;2.40;99.90;;;;;;4992616;28;20234;-80
2022/01/21 05:51:21;;;;;;;17.63;2.57;;;2.40;99.90;;;;;;5046784;28;20368;-80
2022/01/21 05:54:00;;;;;;;19.67;2.60;;;2.40;99.90;;;;;;5041580;28;20234;-80
2022/01/21 05:56:31;;;;;;;11.87;2.90;;;2.40;99.90;;;;;;5043099;28;20217;-81
2022/01/21 05:59:03;;;;;;;12.10;2.30;;;2.50;99.90;;;;;;5021378;28;20254;-80
2022/01/21 06:01:30;;;;;;;12.07;2.70;;;2.50;99.90;;;;;;5030567;28;20231;-81
2022/01/21 06:03:57;;;;;;;8.77;2.37;;;2.50;99.90;;;;;;5029737;28;20957;-81
2022/01/21 06:06:25;;;;;;;12.80;2.80;;;2.50;99.90;;;;;;5023482;28;20305;-81
2022/01/21 06:08:52;;;;;;;8.23;2.40;;;2.60;99.90;;;;;;5026719;28;20681;-81
2022/01/21 06:11:19;;;;;;;12.27;2.50;;;2.60;99.90;;;;;;5028398;28;20225;-81
2022/01/21 06:13:48;;;;;;;11.67;2.50;;;2.60;99.90;;;;;;5028825;28;21136;-81
2022/01/21 06:16:15;;;;;;;12.63;2.53;;;2.60;99.90;;;;;;5027244;28;20229;-81
2022/01/21 06:18:42;;;;;;;7.13;1.63;;;2.60;99.90;;;;;;5022206;28;20904;-81
2022/01/21 06:21:09;;;;;;;8.40;2.80;;;2.60;99.90;;;;;;5045754;28;20231;-81
2022/01/21 06:23:37;;;;;;;8.07;2.20;;;2.60;99.90;;;;;;5042935;28;20236;-81
2022/01/21 06:26:05;;;;;;;10.37;1.90;;;2.60;99.90;;;;;;5046973;28;20225;-81
2022/01/21 06:28:32;;;;;;;11.33;2.63;;;2.60;99.90;;;;;;5043450;28;20232;-81
2022/01/21 06:30:58;;;;;;;9.47;1.90;;;2.60;99.90;;;;;;5030559;28;20731;-81
2022/01/21 06:33:25;;;;;;;11.23;2.20;;;2.60;99.90;;;;;;5039503;28;20312;-80
2022/01/21 06:35:52;;;;;;;12.73;2.30;;;2.50;99.90;;;;;;5043503;28;20227;-81
2022/01/21 06:38:21;;;;;;;9.07;2.50;;;2.50;99.90;;;;;;5022237;28;20324;-81
2022/01/21 06:40:50;;;;;;;10.63;2.37;;;2.50;99.90;;;;;;5032031;28;20234;-81
2022/01/21 06:43:17;;;;;;;8.83;1.60;;;2.50;99.90;;;;;;5026714;28;20235;-81
2022/01/21 06:45:44;;;;;;;10.97;2.07;;;2.50;99.90;;;;;;5026018;28;20251;-79
2022/01/21 06:48:11;;;;;;;8.60;2.37;;;2.50;99.90;;;;;;5037091;28;20876;-81
2022/01/21 06:50:40;;;;;;;7.07;2.00;;;2.50;99.90;;;;;;5041293;28;20239;-83
2022/01/21 06:53:07;;;;;;;10.23;2.10;;;2.60;99.90;;;;;;5022992;28;20230;-81
2022/01/21 06:55:34;;;;;;;9.57;1.73;;;2.50;99.90;;;;;;5043111;28;20234;-81
2022/01/21 06:58:02;;;;;;;3.73;1.63;;;2.50;99.90;;;;;;5021898;28;20285;-81
2022/01/21 07:00:29;;;;;;;11.10;1.83;;;2.50;99.90;;;;;;5019749;28;20308;-81
2022/01/21 07:02:55;;;;;;;9.13;1.93;;;2.50;99.90;;;;;;5022849;28;20226;-81
2022/01/21 07:05:25;;;;;;;8.93;1.80;;;2.50;99.90;;;;;;5043563;28;20230;-81
2022/01/21 07:07:52;;;;;;;5.83;1.47;;;2.60;99.90;;;;;;5033099;28;20237;-81
2022/01/21 07:10:19;;;;;;;5.73;1.47;;;2.50;99.90;;;;;;5029609;28;20767;-81
2022/01/21 07:12:46;;;;;;;8.50;1.57;;;2.60;99.90;;;;;;5026708;28;20613;-81
2022/01/21 07:15:16;;;;;;;8.67;1.70;;;2.60;99.90;;;;;;5022750;28;20232;-82
2022/01/21 07:17:42;;;;;;;5.90;1.70;;;2.60;99.90;;;;;;5030323;28;20227;-82
2022/01/21 07:20:10;;;;;;;9.23;1.60;;;2.60;99.90;;;;;;5037139;28;20254;-82
2022/01/21 07:22:38;;;;;;;10.07;1.80;;;2.60;99.90;;;;;;5035842;28;20242;-81
2022/01/21 07:25:05;;;;;;;6.70;2.07;;;2.60;99.90;;;;;;5024831;28;20255;-82
2022/01/21 07:27:32;;;;;;;5.77;1.60;;;2.60;99.90;;;;;;5024831;28;20883;-82
2022/01/21 07:29:59;;;;;;;9.00;1.47;;;2.60;99.90;;;;;;5026734;28;20246;-82
2022/01/21 07:32:27;;;;;;;5.30;1.60;;;2.60;99.80;;;;;;5038815;28;20313;-81
2022/01/21 07:34:54;;;;;;;6.13;1.60;;;2.50;99.70;;;;;;5027236;28;20230;-82
2022/01/21 07:37:21;;;;;;;7.60;1.60;;;2.50;99.80;;;;;;5028144;28;20273;-81
2022/01/21 07:39:47;;;;;;;4.93;1.47;;;2.50;99.80;;;;;;5045279;28;20313;-82
2022/01/21 07:42:14;;;;;;;6.40;1.90;;;2.50;99.70;;;;;;5041679;28;20231;-81
2022/01/21 07:44:41;;;;;;;5.47;1.40;;;2.60;99.70;;;;;;5039099;28;20243;-82
2022/01/21 07:47:08;;;;;;;5.30;1.30;;;2.50;99.60;;;;;;5022141;28;20230;-82
2022/01/21 07:49:36;;;;;;;6.47;1.60;;;2.60;99.70;;;;;;5028464;28;20250;-82
2022/01/21 07:52:03;;;;;;;6.00;1.57;;;2.60;99.60;;;;;;5040654;28;20231;-82
2022/01/21 07:54:29;;;;;;;5.53;1.30;;;2.60;99.60;;;;;;5023233;28;20228;-83
2022/01/21 07:56:56;;;;;;;7.17;1.83;;;2.60;99.50;;;;;;5030757;28;20425;-82
2022/01/21 07:59:23;;;;;;;4.40;1.53;;;2.60;99.50;;;;;;5027813;28;20226;-82
2022/01/21 08:01:50;;;;;;;7.37;1.80;;;2.60;99.40;;;;;;5047387;28;20318;-83
2022/01/21 08:04:16;;;;;;;9.13;1.70;;;2.60;99.30;;;;;;5048066;28;20263;-82
2022/01/21 08:06:45;;;;;;;5.57;1.30;;;2.70;99.40;;;;;;5026812;28;20240;-82
2022/01/21 08:09:11;;;;;;;11.33;1.50;;;2.70;99.40;;;;;;5025717;28;20277;-82
2022/01/21 08:11:38;;;;;;;4.83;1.63;;;2.80;99.40;;;;;;5028493;28;20651;-82
2022/01/21 08:14:05;;;;;;;6.90;1.43;;;2.90;99.50;;;;;;5037780;28;20237;-82
2022/01/21 08:16:33;;;;;;;4.40;1.40;;;2.90;99.50;;;;;;5026942;28;20230;-83
2022/01/21 08:19:00;;;;;;;9.43;2.13;;;3.00;99.40;;;;;;5042994;28;20223;-83
2022/01/21 08:21:27;;;;;;;8.50;1.93;;;3.10;99.30;;;;;;5026521;28;20229;-82
2022/01/21 08:23:55;;;;;;;8.33;1.63;;;3.10;99.00;;;;;;5044667;28;20222;-83
2022/01/21 08:26:25;;;;;;;6.73;1.50;;;3.20;99.00;;;;;;5026034;28;20574;-82
2022/01/21 08:28:53;;;;;;;9.40;2.27;;;3.20;98.90;;;;;;5047508;28;20893;-82
2022/01/21 08:31:20;;;;;;;8.23;1.70;;;3.30;99.30;;;;;;5044390;28;20243;-83
2022/01/21 08:33:47;;;;;;;5.13;1.67;;;3.30;99.00;;;;;;5045334;28;20242;-82
2022/01/21 08:36:14;;;;;;;6.00;1.40;;;3.40;99.20;;;;;;5030107;28;20225;-82
2022/01/21 08:38:41;;;;;;;6.13;1.77;;;3.60;99.40;;;;;;5024436;28;20270;-82
2022/01/21 08:41:09;;;;;;;4.50;1.80;;;3.80;99.60;;;;;;5033012;28;20253;-82
2022/01/21 08:43:36;;;;;;;7.37;1.70;;;4.10;99.60;;;;;;5048798;28;20711;-82
2022/01/21 08:46:03;;;;;;;6.93;1.60;;;4.50;99.70;;;;;;5054596;28;20248;-82
2022/01/21 08:48:30;;;;;;;6.77;1.90;;;4.90;99.60;;;;;;5032798;28;20970;-82
2022/01/21 08:50:58;;;;;;;5.93;1.53;;;5.40;99.40;;;;;;5026560;28;20264;-82
2022/01/21 08:53:38;;;;;;;5.57;1.50;;;5.80;98.70;;;;;;5047477;28;20748;-82
2022/01/21 08:56:07;;;;;;;5.70;1.83;;;6.00;98.00;;;;;;5045468;28;20224;-82
2022/01/21 08:58:35;;;;;;;6.50;1.73;;;6.20;97.70;;;;;;5035042;28;20895;-83
2022/01/21 09:01:02;;;;;;;6.57;1.80;;;6.30;97.80;;;;;;5033662;28;20309;-82
2022/01/21 09:03:29;;;;;;;7.13;1.87;;;6.50;97.90;;;;;;5031728;28;20322;-82
2022/01/21 09:05:55;;;;;;;7.27;1.90;;;6.90;97.60;;;;;;5055441;28;20238;-82
2022/01/21 09:08:28;;;;;;;4.90;1.33;;;7.30;97.70;;;;;;5025835;28;20310;-82
2022/01/21 09:10:55;;;;;;;6.20;1.57;;;7.70;97.20;;;;;;5047808;28;20220;-82
2022/01/21 09:13:23;;;;;;;6.83;1.60;;;8.10;97.10;;;;;;5045062;28;20735;-81
2022/01/21 09:15:51;;;;;;;7.10;1.30;;;8.50;96.70;;;;;;5040491;28;20329;-83
2022/01/21 09:18:20;;;;;;;3.10;1.20;;;8.80;96.50;;;;;;5051049;28;20304;-81
2022/01/21 09:20:47;;;;;;;4.97;1.47;;;9.20;96.20;;;;;;5056484;28;20237;-81
2022/01/21 09:23:14;;;;;;;4.67;1.30;;;9.40;95.50;;;;;;5038580;28;20309;-81
2022/01/21 09:25:41;;;;;;;7.13;1.80;;;9.70;95.20;;;;;;5028734;28;20239;-79
2022/01/21 09:28:08;;;;;;;5.90;1.50;;;9.90;95.00;;;;;;5048853;28;20246;-80
2022/01/21 09:30:35;;;;;;;7.33;1.50;;;10.10;94.60;;;;;;5026853;28;20805;-81
2022/01/21 09:33:04;;;;;;;4.17;1.20;;;10.30;94.40;;;;;;5048199;28;20235;-80
2022/01/21 09:35:30;;;;;;;5.17;1.30;;;10.50;94.00;;;;;;5041516;28;20739;-80
2022/01/21 09:37:57;;;;;;;3.60;1.20;;;10.60;93.90;;;;;;5037552;28;20786;-80
2022/01/21 09:40:30;;;;;;;5.83;1.30;;;10.80;92.90;;;;;;5045998;28;20800;-80
2022/01/21 09:42:58;;;;;;;3.93;1.47;;;10.90;92.60;;;;;;5048786;28;20242;-81
2022/01/21 09:45:27;;;;;;;3.53;1.40;;;11.00;92.40;;;;;;5038854;28;22468;-79
2022/01/21 09:47:55;;;;;;;3.07;1.00;;;11.10;92.60;;;;;;5045043;28;20234;-79
2022/01/21 09:50:23;;;;;;;4.33;1.13;;;11.20;92.20;;;;;;5024137;28;20225;-79
2022/01/21 09:52:53;;;;;;;3.07;1.10;;;11.30;91.40;;;;;;5042685;28;20316;-80
2022/01/21 09:55:22;;;;;;;3.87;1.17;;;11.30;91.50;;;;;;5047913;28;20749;-81
2022/01/21 09:57:51;;;;;;;3.63;1.30;;;11.40;91.80;;;;;;5029950;28;20763;-81
2022/01/21 10:00:19;;;;;;;4.17;1.20;;;11.50;91.10;;;;;;5042640;28;20244;-80
2022/01/21 10:02:48;;;;;;;3.23;1.27;;;11.60;91.00;;;;;;5042876;28;20236;-79
2022/01/21 10:05:14;;;;;;;3.17;1.20;;;11.70;91.30;;;;;;5025784;28;20228;-79
2022/01/21 10:07:46;;;;;;;5.33;1.17;;;11.80;91.30;;;;;;5015375;28;20235;-79
2022/01/21 10:10:13;;;;;;;6.07;1.23;;;11.90;90.20;;;;;;5031429;28;20323;-79
2022/01/21 10:12:44;;;;;;;5.67;1.60;;;12.00;90.50;;;;;;5044213;28;20238;-80
2022/01/21 10:15:11;;;;;;;4.83;1.10;;;12.00;90.10;;;;;;5034642;28;20314;-80
2022/01/21 10:17:39;;;;;;;5.37;1.50;;;12.00;90.00;;;;;;5043437;28;20324;-80
2022/01/21 10:20:13;;;;;;;4.53;1.10;;;11.90;88.50;;;;;;5044678;28;20229;-79
2022/01/21 10:22:58;;;;;;;4.27;1.10;;;11.90;87.80;;;;;;5042230;28;20228;-80
2022/01/21 10:25:26;;;;;;;4.87;1.47;;;11.80;87.70;;;;;;5046971;28;20237;-81
2022/01/21 10:27:53;;;;;;;3.50;1.17;;;11.80;88.50;;;;;;5026035;28;20228;-80
2022/01/21 10:30:21;;;;;;;6.33;1.23;;;11.80;88.30;;;;;;5047770;28;20233;-80
2022/01/21 10:32:48;;;;;;;4.37;1.17;;;11.80;88.10;;;;;;5040357;28;20231;-81
2022/01/21 10:35:24;;;;;;;4.23;1.33;;;11.80;88.10;;;;;;5043530;28;20334;-80
2022/01/21 10:37:51;;;;;;;3.17;1.10;;;11.80;86.60;;;;;;5041905;28;20231;-80
2022/01/21 10:40:21;;;;;;;5.07;1.77;;;11.80;86.40;;;;;;5039637;28;20225;-81
2022/01/21 10:42:48;;;;;;;5.17;1.67;;;11.80;86.30;;;;;;5050267;28;20235;-82
2022/01/21 10:45:16;;;;;;;3.93;1.10;;;11.80;85.10;;;;;;5039042;28;20255;-79
2022/01/21 10:47:49;;;;;;;2.93;1.40;;;11.70;85.90;;;;;;5041784;28;20238;-80
2022/01/21 10:50:20;;;;;;;4.83;1.67;;;11.70;86.10;;;;;;5039660;28;20225;-82
2022/01/21 10:52:51;;;;;;;2.47;0.87;;;11.60;86.80;;;;;;5042317;28;20266;-80
2022/01/21 10:55:30;;;;;;;4.90;1.30;;;11.60;86.50;;;;;;5037720;28;20237;-79
2022/01/21 10:58:17;;;;;;;3.80;1.10;;;11.60;86.20;;;;;;5026209;28;20236;-81
2022/01/21 11:00:59;;;;;;;3.93;1.30;;;11.70;87.00;;;;;;5039036;28;20273;-80
2022/01/21 11:03:28;;;;;;;6.13;1.63;;;11.80;86.60;;;;;;5044689;28;20315;-82
2022/01/21 11:06:09;;;;;;;3.97;1.10;;;11.80;86.90;;;;;;5020854;28;20235;-81
2022/01/21 11:08:37;;;;;;;3.93;1.30;;;11.80;85.20;;;;;;5047093;28;20236;-81
2022/01/21 11:11:05;;;;;;;4.50;1.30;;;11.80;86.60;;;;;;5023320;28;20240;-79
2022/01/21 11:13:34;;;;;;;3.80;1.50;;;11.80;86.90;;;;;;5031737;28;20239;-80
2022/01/21 11:16:06;;;;;;;2.50;1.17;;;11.80;86.50;;;;;;5043282;28;20292;-80
2022/01/21 11:18:33;;;;;;;5.13;1.37;;;11.70;86.30;;;;;;5052596;28;20236;-80
2022/01/21 11:21:05;;;;;;;4.37;1.20;;;11.70;86.40;;;;;;5037598;28;20230;-80
2022/01/21 11:23:33;;;;;;;5.93;1.60;;;11.60;86.70;;;;;;5038344;28;20614;-83
2022/01/21 11:26:03;;;;;;;5.33;1.40;;;11.60;86.70;;;;;;5045094;28;20262;-81
2022/01/21 11:28:40;;;;;;;8.70;1.80;;;11.50;86.90;;;;;;5040309;28;20321;-81
2022/01/21 11:31:08;;;;;;;6.23;1.40;;;11.50;86.40;;;;;;5036373;28;20406;-81
2022/01/21 11:33:36;;;;;;;4.80;1.50;;;11.40;87.30;;;;;;5038056;28;20241;-80
2022/01/21 11:36:04;;;;;;;3.90;1.60;;;11.50;88.00;;;;;;5044140;28;20233;-80
2022/01/21 11:38:34;;;;;;;4.53;1.80;;;11.50;88.40;;;;;;5024381;28;20724;-80
2022/01/21 11:41:01;;;;;;;5.47;1.67;;;11.50;88.60;;;;;;5040070;28;20225;-80
2022/01/21 11:43:30;;;;;;;5.60;1.57;;;11.50;88.90;;;;;;5019468;28;20242;-81
2022/01/21 11:48:53;;;;;;;7.20;2.07;;;11.60;89.20;;;;;;5019827;28;20247;-82
2022/01/21 11:51:30;;;;;;;8.57;1.87;;;11.70;89.20;;;;;;5037337;28;20311;-82
2022/01/21 11:53:59;;;;;;;7.70;1.50;;;11.60;89.00;;;;;;5032765;28;20270;-80
2022/01/21 11:56:35;;;;;;;9.70;2.10;;;11.50;88.60;;;;;;5035613;28;20229;-80
2022/01/21 11:59:07;;;;;;;5.57;1.70;;;11.30;88.40;;;;;;5015520;28;20792;-79
2022/01/21 12:01:40;;;;;;;7.83;2.43;;;11.10;89.00;;;;;;5034478;28;20273;-79
2022/01/21 12:04:07;;;;;;;8.50;2.37;;;10.90;89.60;;;;;;5024210;28;20230;-80
2022/01/21 12:06:35;;;;;;;5.33;2.07;;;10.70;90.00;;;;;;5035437;28;20244;-82
2022/01/21 12:09:04;;;;;;;8.63;2.23;;;10.50;90.30;;;;;;5036322;28;20221;-80
2022/01/21 12:11:37;;;;;;;9.13;2.20;;;10.30;90.50;;;;;;5038821;28;20604;-80
2022/01/21 12:14:27;;;;;;;8.63;2.10;;;10.20;90.90;;;;;;5012236;28;20230;-80
2022/01/21 12:17:00;;;;;;;6.40;2.23;;;10.20;91.10;;;;;;5044608;28;20237;-82
2022/01/21 12:19:33;;;;;;;5.83;1.87;;;10.10;91.20;;;;;;5037826;28;20234;-80
2022/01/21 12:22:12;;;;;;;6.43;2.03;;;10.00;91.30;;;;;;5055047;28;20607;-81
2022/01/21 12:24:55;;;;;;;8.83;2.63;;;9.90;91.70;;;;;;5023398;28;20300;-79
2022/01/21 12:27:25;;;;;;;7.77;2.10;;;9.80;92.00;;;;;;5043604;28;20236;-80
2022/01/21 12:30:12;;;;;;;7.27;1.77;;;9.80;92.10;;;;;;5040351;28;20710;-79
2022/01/21 12:32:52;;;;;;;8.67;2.53;;;9.70;92.40;;;;;;5038574;28;20293;-79
2022/01/21 12:35:56;;;;;;;13.63;2.30;;;9.60;92.60;;;;;;5023890;28;20300;-79
2022/01/21 12:41:34;;;;;;;8.13;1.70;;;9.40;92.90;;;;;;5028427;28;20233;-79
2022/01/21 12:44:02;;;;;;;9.03;2.67;;;9.30;93.20;;;;;;5042687;28;20276;-79
2022/01/21 12:46:33;;;;;;;8.93;2.03;;;9.30;93.30;;;;;;5046562;28;20852;-80
2022/01/21 12:49:22;;;;;;;6.87;2.10;;;9.30;93.60;;;;;;5048090;28;20236;-80
2022/01/21 12:52:26;;;;;;;7.77;2.23;;;9.20;93.90;;;;;;5039247;28;20312;-80
2022/01/21 12:57:36;;;;;;;11.43;2.63;;;9.20;94.30;;;;;;5039411;28;20384;-81
2022/01/21 13:00:08;;;;;;;7.50;2.07;;;9.20;94.60;;;;;;5021625;28;20233;-79
2022/01/21 13:02:35;;;;;;;11.90;2.37;;;9.20;94.90;;;;;;5045837;28;20256;-80
2022/01/21 13:05:12;;;;;;;11.40;2.93;;;9.20;94.90;;;;;;5048345;28;20325;-79
2022/01/21 13:07:51;;;;;;;10.83;2.20;;;9.20;95.20;;;;;;5021406;28;20231;-81
2022/01/21 13:10:23;;;;;;;9.13;2.00;;;9.20;95.40;;;;;;5026073;28;20253;-79
2022/01/21 13:15:42;;;;;;;17.30;2.23;;;9.20;95.40;;;;;;5026228;28;20805;-81
2022/01/21 13:18:11;;;;;;;9.53;2.07;;;9.10;95.80;;;;;;5039656;28;20328;-81
2022/01/21 13:20:42;;;;;;;7.03;1.83;;;9.10;96.00;;;;;;5047420;28;20233;-79
2022/01/21 13:23:09;;;;;;;8.23;2.10;;;9.10;96.10;;;;;;5019921;28;20232;-80
2022/01/21 13:25:36;;;;;;;7.87;2.10;;;9.10;96.10;;;;;;5044119;28;20251;-80
2022/01/21 13:28:05;;;;;;;9.10;1.87;;;9.10;96.30;;;;;;5022725;28;20228;-79
2022/01/21 13:30:36;;;;;;;11.80;2.30;;;9.10;96.40;;;;;;5046405;28;20317;-83
2022/01/21 13:33:04;;;;;;;9.87;2.57;;;9.10;96.60;;;;;;5040461;28;20224;-80
2022/01/21 13:35:32;;;;;;;9.63;2.30;;;9.20;96.60;;;;;;5019807;28;22428;-80
2022/01/21 13:38:06;;;;;;;10.03;2.40;;;9.20;96.80;;;;;;5042174;28;21069;-79
2022/01/21 13:40:36;;;;;;;11.47;2.47;;;9.30;96.90;;;;;;5043886;28;20238;-80
2022/01/21 13:43:14;;;;;;;7.47;2.10;;;9.30;96.90;;;;;;5030505;28;20218;-80
2022/01/21 13:45:42;;;;;;;9.60;2.93;;;9.30;96.70;;;;;;5050306;28;20704;-80
2022/01/21 13:48:10;;;;;;;14.53;2.30;;;9.30;96.70;;;;;;5043984;28;20815;-81
2022/01/21 13:50:44;;;;;;;8.33;2.37;;;9.30;96.80;;;;;;5046786;28;21097;-80
2022/01/21 13:53:12;;;;;;;7.77;1.90;;;9.20;97.10;;;;;;5037980;28;20229;-80
2022/01/21 13:55:42;;;;;;;12.90;2.20;;;9.10;97.00;;;;;;5038500;28;20790;-80
2022/01/21 13:58:10;;;;;;;15.30;2.07;;;9.10;97.10;;;;;;5050282;28;20257;-79
2022/01/21 14:00:39;;;;;;;9.87;1.80;;;9.00;97.10;;;;;;5046440;28;20228;-82
2022/01/21 14:03:09;;;;;;;10.77;2.40;;;9.00;97.10;;;;;;5052294;28;20730;-82